Time;durP1;ratioP1;P1;durP2;ratioP2;P2;SDS_P1;SDS_P2;PMS_P1;PMS_P2;Temp;Humidity;BMP_temperature;BMP_pressure;BME280_temperature;BME280_humidity;BME280_pressure;Samples;Min_cycle;Max_cycle;Signal;HPM_P1;HPM_P2
2022/12/26 00:03:33;;;;;;;;;;;;;;;7.76;100;100998.6;;;;-75
2022/12/26 00:08:33;;;;;;;;;;;;;;;7.77;100;101008.8;;;;-76
2022/12/26 00:13:32;;;;;;;;;;;;;;;7.79;100;101016.4;;;;-76
2022/12/26 00:18:32;;;;;;;;;;;;;;;7.81;100;101010.6;;;;-75
2022/12/26 00:23:34;;;;;;;;;;;;;;;7.82;100;101002;;;;-75
2022/12/26 00:23:47;;;;;;;25.7;11.1;;;;;;;;;;;;;-75
2022/12/26 00:28:32;;;;;;;;;;;;;;;7.83;100;101020.3;;;;-76
2022/12/26 00:33:35;;;;;;;;;;;;;;;7.84;100;101029.7;;;;-75
2022/12/26 00:38:32;;;;;;;;;;;;;;;7.86;100;101033.7;;;;-75
2022/12/26 00:43:34;;;;;;;;;;;;;;;7.88;100;101035.4;;;;-75
2022/12/26 00:48:33;;;;;;;;;;;;;;;7.88;100;101023.7;;;;-75
2022/12/26 00:53:32;;;;;;;;;;;;;;;7.87;100;101019.5;;;;-75
2022/12/26 00:53:47;;;;;;;25.5;11.6;;;;;;;;;;;;;-75
2022/12/26 00:58:33;;;;;;;;;;;;;;;7.88;100;101018.9;;;;-75
2022/12/26 01:03:33;;;;;;;;;;;;;;;7.91;100;101017.3;;;;-75
2022/12/26 01:08:33;;;;;;;;;;;;;;;7.91;100;101008.2;;;;-75
2022/12/26 01:13:32;;;;;;;;;;;;;;;7.91;100;100993;;;;-75
2022/12/26 01:18:32;;;;;;;;;;;;;;;7.9;100;100997.3;;;;-74
2022/12/26 01:23:33;;;;;;;;;;;;;;;7.88;100;101005.5;;;;-76
2022/12/26 01:23:47;;;;;;;19.6;9.4;;;;;;;;;;;;;-76
2022/12/26 01:28:34;;;;;;;;;;;;;;;7.89;100;101016.3;;;;-74
2022/12/26 01:33:33;;;;;;;;;;;;;;;7.86;100;101015.6;;;;-75
2022/12/26 01:38:32;;;;;;;;;;;;;;;7.85;100;101021.6;;;;-75
2022/12/26 01:43:43;;;;;;;;;;;;;;;7.85;100;101022.4;;;;-75
2022/12/26 01:48:36;;;;;;;;;;;;;;;7.82;100;101019.2;;;;-75
2022/12/26 01:53:35;;;;;;;;;;;;;;;7.82;100;101024.7;;;;-75
2022/12/26 01:53:50;;;;;;;17.4;8.6;;;;;;;;;;;;;-75
2022/12/26 01:58:34;;;;;;;;;;;;;;;7.82;100;101020.8;;;;-75
2022/12/26 02:08:35;;;;;;;;;;;;;;;7.83;100;101023.5;;;;-75
2022/12/26 02:13:33;;;;;;;;;;;;;;;7.81;100;101018.9;;;;-74
2022/12/26 02:18:32;;;;;;;;;;;;;;;7.82;100;101017.8;;;;-74
2022/12/26 02:23:53;;;;;;;;;;;;;;;7.81;100;101005.2;;;;-75
2022/12/26 02:24:19;;;;;;;14.8;7.7;;;;;;;;;;;;;-75
2022/12/26 02:28:44;;;;;;;;;;;;;;;7.79;100;100986.4;;;;-74
2022/12/26 02:33:41;;;;;;;;;;;;;;;7.77;100;100983;;;;-74
2022/12/26 02:38:38;;;;;;;;;;;;;;;7.74;100;100975;;;;-74
2022/12/26 02:43:36;;;;;;;;;;;;;;;7.69;100;100978.7;;;;-74
2022/12/26 02:48:34;;;;;;;;;;;;;;;7.64;100;100977.4;;;;-74
2022/12/26 03:13:36;;;;;;;;;;;;;;;7.29;100;100993.4;;;;-75
2022/12/26 03:18:34;;;;;;;;;;;;;;;7.23;100;100999.1;;;;-75
2022/12/26 03:23:33;;;;;;;;;;;;;;;7.18;100;101002.5;;;;-75
2022/12/26 03:23:50;;;;;;;19;8.7;;;;;;;;;;;;;-75
2022/12/26 03:28:33;;;;;;;;;;;;;;;7.13;100;100988;;;;-74
2022/12/26 03:38:36;;;;;;;;;;;;;;;7.06;100;100990.9;;;;-74
2022/12/26 04:53:32;;;;;;;;;;;;;;;7.08;100;100986.5;;;;-74
2022/12/26 04:53:51;;;;;;;13;6.7;;;;;;;;;;;;;-74
2022/12/26 04:58:32;;;;;;;;;;;;;;;7.07;100;100983.4;;;;-75
2022/12/26 05:13:32;;;;;;;;;;;;;;;7.12;100;100970.5;;;;-75
2022/12/26 05:28:44;;;;;;;;;;;;;;;7.1;100;100958.3;;;;-74
2022/12/26 05:38:32;;;;;;;;;;;;;;;7.05;100;100970;;;;-79
2022/12/26 05:43:32;;;;;;;;;;;;;;;7.04;100;100975.4;;;;-79
2022/12/26 05:48:32;;;;;;;;;;;;;;;7.03;100;100973.3;;;;-79
2022/12/26 05:53:33;;;;;;;;;;;;;;;7.04;100;100982;;;;-78
2022/12/26 05:53:52;;;;;;;9.3;4.3;;;;;;;;;;;;;-79
2022/12/26 05:58:32;;;;;;;;;;;;;;;7.11;100;100978.1;;;;-79
2022/12/26 06:03:32;;;;;;;;;;;;;;;7.14;100;100974.1;;;;-78
2022/12/26 06:08:33;;;;;;;;;;;;;;;7.18;100;100977.5;;;;-79
2022/12/26 06:13:32;;;;;;;;;;;;;;;7.18;100;100976.4;;;;-79
2022/12/26 06:18:32;;;;;;;;;;;;;;;7.16;100;100979.7;;;;-79
2022/12/26 06:23:33;;;;;;;;;;;;;;;7.14;100;100980.4;;;;-78
2022/12/26 06:23:52;;;;;;;6.1;2.9;;;;;;;;;;;;;-78
2022/12/26 06:28:33;;;;;;;;;;;;;;;7.14;100;100973.4;;;;-79
2022/12/26 06:33:32;;;;;;;;;;;;;;;7.17;100;100973;;;;-78
2022/12/26 06:38:32;;;;;;;;;;;;;;;7.21;100;100967.4;;;;-80
2022/12/26 06:43:32;;;;;;;;;;;;;;;7.22;100;100962.6;;;;-79
2022/12/26 06:48:32;;;;;;;;;;;;;;;7.27;100;100954.9;;;;-78
2022/12/26 06:53:32;;;;;;;;;;;;;;;7.3;100;100947;;;;-79
2022/12/26 06:53:53;;;;;;;6.9;2.8;;;;;;;;;;;;;-78
2022/12/26 06:58:32;;;;;;;;;;;;;;;7.32;100;100935.8;;;;-79
2022/12/26 07:03:32;;;;;;;;;;;;;;;7.34;100;100925.4;;;;-79
2022/12/26 07:08:32;;;;;;;;;;;;;;;7.36;100;100933.6;;;;-80
2022/12/26 07:13:32;;;;;;;;;;;;;;;7.38;100;100938.9;;;;-78
2022/12/26 07:18:32;;;;;;;;;;;;;;;7.4;100;100924.1;;;;-78
2022/12/26 07:23:33;;;;;;;;;;;;;;;7.45;100;100945.1;;;;-79
2022/12/26 07:23:53;;;;;;;9.1;2.9;;;;;;;;;;;;;-78
2022/12/26 07:28:32;;;;;;;;;;;;;;;7.47;100;100939.5;;;;-74
2022/12/26 07:33:33;;;;;;;;;;;;;;;7.48;100;100934.6;;;;-74
2022/12/26 07:38:32;;;;;;;;;;;;;;;7.5;100;100934.9;;;;-75
2022/12/26 07:43:32;;;;;;;;;;;;;;;7.53;100;100941.3;;;;-74
2022/12/26 07:48:32;;;;;;;;;;;;;;;7.57;100;100944.2;;;;-74
2022/12/26 07:53:32;;;;;;;;;;;;;;;7.59;100;100941.7;;;;-74
2022/12/26 07:53:53;;;;;;;10.9;3.3;;;;;;;;;;;;;-74
2022/12/26 07:58:32;;;;;;;;;;;;;;;7.63;100;100952.1;;;;-75
2022/12/26 08:03:32;;;;;;;;;;;;;;;7.64;100;100982.3;;;;-75
2022/12/26 08:08:36;;;;;;;;;;;;;;;7.73;100;100991.5;;;;-75
2022/12/26 08:13:32;;;;;;;;;;;;;;;7.76;100;101011.4;;;;-76
2022/12/26 08:18:32;;;;;;;;;;;;;;;7.78;100;101021.9;;;;-75
2022/12/26 08:23:32;;;;;;;;;;;;;;;7.8;100;101024.8;;;;-75
2022/12/26 08:23:54;;;;;;;6.4;2;;;;;;;;;;;;;-75
2022/12/26 08:28:32;;;;;;;;;;;;;;;7.82;100;101029.3;;;;-75
2022/12/26 08:33:32;;;;;;;;;;;;;;;7.81;100;101036.8;;;;-75
2022/12/26 08:38:32;;;;;;;;;;;;;;;7.82;100;101068.8;;;;-75
2022/12/26 08:43:33;;;;;;;;;;;;;;;7.78;100;101119.7;;;;-79
2022/12/26 08:48:33;;;;;;;;;;;;;;;7.66;100;101133.9;;;;-79
2022/12/26 08:53:34;;;;;;;;;;;;;;;7.49;100;101155;;;;-78
2022/12/26 08:53:55;;;;;;;12.7;1.9;;;;;;;;;;;;;-78
2022/12/26 08:58:33;;;;;;;;;;;;;;;7.38;100;101187;;;;-78
2022/12/26 09:03:32;;;;;;;;;;;;;;;7.24;100;101199.3;;;;-79
2022/12/26 09:08:33;;;;;;;;;;;;;;;7.1;100;101202.9;;;;-79
2022/12/26 09:13:32;;;;;;;;;;;;;;;7;100;101210;;;;-80
2022/12/26 09:18:33;;;;;;;;;;;;;;;6.88;100;101222.3;;;;-78
2022/12/26 09:23:33;;;;;;;;;;;;;;;6.82;100;101233;;;;-78
2022/12/26 09:23:58;;;;;;;9.2;1.4;;;;;;;;;;;;;-77
2022/12/26 09:28:32;;;;;;;;;;;;;;;6.79;100;101250;;;;-78
2022/12/26 09:33:36;;;;;;;;;;;;;;;6.77;100;101266.6;;;;-78
2022/12/26 09:38:33;;;;;;;;;;;;;;;6.72;100;101274;;;;-78
2022/12/26 09:43:40;;;;;;;;;;;;;;;6.71;100;101282.1;;;;-78
2022/12/26 09:48:36;;;;;;;;;;;;;;;6.73;100;101295.2;;;;-80
2022/12/26 09:53:35;;;;;;;;;;;;;;;6.76;100;101296.1;;;;-78
2022/12/26 09:53:54;;;;;;;5.8;1;;;;;;;;;;;;;-78
2022/12/26 09:58:33;;;;;;;;;;;;;;;6.76;100;101321.2;;;;-78
2022/12/26 10:03:33;;;;;;;;;;;;;;;6.74;100;101335.2;;;;-77
2022/12/26 10:08:38;;;;;;;;;;;;;;;6.69;100;101337.3;;;;-79
2022/12/26 10:13:36;;;;;;;;;;;;;;;6.66;100;101351.1;;;;-78
2022/12/26 10:18:38;;;;;;;;;;;;;;;6.61;100;101343.9;;;;-79
2022/12/26 10:23:37;;;;;;;;;;;;;;;6.6;100;101348.9;;;;-79
2022/12/26 10:23:57;;;;;;;3.7;0.6;;;;;;;;;;;;;-80
2022/12/26 10:28:38;;;;;;;;;;;;;;;6.59;100;101349.8;;;;-79
2022/12/26 10:33:39;;;;;;;;;;;;;;;6.57;100;101366.3;;;;-78
2022/12/26 10:38:36;;;;;;;;;;;;;;;6.55;100;101375.2;;;;-78
2022/12/26 10:43:33;;;;;;;;;;;;;;;6.56;100;101375.6;;;;-79
2022/12/26 10:48:32;;;;;;;;;;;;;;;6.6;100;101374.7;;;;-79
2022/12/26 10:53:32;;;;;;;;;;;;;;;6.66;100;101387.4;;;;-79
2022/12/26 10:53:55;;;;;;;5.3;0.5;;;;;;;;;;;;;-79
2022/12/26 10:58:35;;;;;;;;;;;;;;;6.65;100;101399.5;;;;-78
2022/12/26 11:03:32;;;;;;;;;;;;;;;6.6;100;101412.8;;;;-79
2022/12/26 11:08:35;;;;;;;;;;;;;;;6.59;100;101423.2;;;;-79
2022/12/26 11:13:35;;;;;;;;;;;;;;;6.63;100;101425.3;;;;-79
2022/12/26 11:18:36;;;;;;;;;;;;;;;6.62;100;101428.8;;;;-78
2022/12/26 11:23:34;;;;;;;;;;;;;;;6.63;100;101441.1;;;;-78
2022/12/26 11:23:55;;;;;;;4.4;0.7;;;;;;;;;;;;;-78
2022/12/26 11:28:34;;;;;;;;;;;;;;;6.63;100;101449.1;;;;-78
2022/12/26 11:33:34;;;;;;;;;;;;;;;6.58;100;101463.1;;;;-78
2022/12/26 11:38:43;;;;;;;;;;;;;;;6.55;100;101462.7;;;;-78
2022/12/26 11:43:33;;;;;;;;;;;;;;;6.5;100;101472;;;;-78
2022/12/26 11:48:33;;;;;;;;;;;;;;;6.46;100;101472.6;;;;-78
2022/12/26 11:53:35;;;;;;;;;;;;;;;6.44;100;101477.4;;;;-78
2022/12/26 11:54:04;;;;;;;4.7;0.8;;;;;;;;;;;;;-77
2022/12/26 11:58:33;;;;;;;;;;;;;;;6.46;100;101488.9;;;;-77
2022/12/26 12:03:34;;;;;;;;;;;;;;;6.48;100;101501.3;;;;-79
2022/12/26 12:08:40;;;;;;;;;;;;;;;6.5;100;101508.7;;;;-78
2022/12/26 12:13:41;;;;;;;;;;;;;;;6.55;100;101508.2;;;;-80
2022/12/26 12:18:39;;;;;;;;;;;;;;;6.49;100;101516.3;;;;-77
2022/12/26 12:23:44;;;;;;;;;;;;;;;6.4;100;101522.1;;;;-78
2022/12/26 12:24:00;;;;;;;5.6;0.9;;;;;;;;;;;;;-77
2022/12/26 12:28:45;;;;;;;;;;;;;;;6.31;100;101530.5;;;;-79
2022/12/26 12:33:40;;;;;;;;;;;;;;;6.26;100;101542.1;;;;-78
2022/12/26 12:38:33;;;;;;;;;;;;;;;6.23;100;101544.7;;;;-78
2022/12/26 12:43:36;;;;;;;;;;;;;;;6.24;100;101547.3;;;;-79
2022/12/26 12:48:55;;;;;;;;;;;;;;;6.22;100;101554.2;;;;-78
2022/12/26 12:53:39;;;;;;;;;;;;;;;6.22;100;101562.4;;;;-80
2022/12/26 12:54:04;;;;;;;6.5;0.9;;;;;;;;;;;;;-76
2022/12/26 12:58:38;;;;;;;;;;;;;;;6.24;100;101553.4;;;;-77
2022/12/26 13:03:36;;;;;;;;;;;;;;;6.28;100;101561.4;;;;-78
2022/12/26 13:08:35;;;;;;;;;;;;;;;6.26;100;101561.4;;;;-79
2022/12/26 13:13:36;;;;;;;;;;;;;;;6.2;100;101562.9;;;;-78
2022/12/26 13:18:36;;;;;;;;;;;;;;;6.16;100;101558.8;;;;-78
2022/12/26 13:28:33;;;;;;;;;;;;;;;6.09;100;101571.8;;;;-79
2022/12/26 13:33:38;;;;;;;;;;;;;;;6.04;100;101583.3;;;;-77
2022/12/26 13:38:42;;;;;;;;;;;;;;;5.99;100;101590.3;;;;-78
2022/12/26 13:48:43;;;;;;;;;;;;;;;5.89;100;101595;;;;-79
2022/12/26 13:53:36;;;;;;;;;;;;;;;5.81;100;101598.6;;;;-77
2022/12/26 13:54:02;;;;;;;5.3;0.7;;;;;;;;;;;;;-77
2022/12/26 13:58:39;;;;;;;;;;;;;;;5.75;100;101604.4;;;;-78
2022/12/26 14:03:52;;;;;;;;;;;;;;;5.66;100;101610.6;;;;-77
2022/12/26 14:08:38;;;;;;;;;;;;;;;5.6;100;101615.2;;;;-77
2022/12/26 14:13:40;;;;;;;;;;;;;;;5.51;100;101624.2;;;;-77
2022/12/26 14:18:41;;;;;;;;;;;;;;;5.45;100;101632.2;;;;-78
2022/12/26 14:23:39;;;;;;;;;;;;;;;5.41;100;101637.2;;;;-78
2022/12/26 14:23:57;;;;;;;3.4;0.6;;;;;;;;;;;;;-77
2022/12/26 14:28:36;;;;;;;;;;;;;;;5.39;100;101654.2;;;;-77
2022/12/26 14:33:35;;;;;;;;;;;;;;;5.39;100;101655.5;;;;-77
2022/12/26 14:38:40;;;;;;;;;;;;;;;5.38;100;101658.9;;;;-77
2022/12/26 14:43:40;;;;;;;;;;;;;;;5.38;100;101663.5;;;;-78
2022/12/26 14:48:51;;;;;;;;;;;;;;;5.37;100;101667.3;;;;-78
2022/12/26 14:53:38;;;;;;;;;;;;;;;5.32;100;101675.8;;;;-77
2022/12/26 14:54:06;;;;;;;3.6;0.6;;;;;;;;;;;;;-76
2022/12/26 14:58:39;;;;;;;;;;;;;;;5.28;100;101672.6;;;;-77
2022/12/26 15:03:47;;;;;;;;;;;;;;;5.23;100;101676.7;;;;-78
2022/12/26 15:08:43;;;;;;;;;;;;;;;5.17;100;101684.9;;;;-78
2022/12/26 15:13:44;;;;;;;;;;;;;;;5.12;100;101688.7;;;;-76
2022/12/26 15:18:46;;;;;;;;;;;;;;;5.04;100;101696.1;;;;-79
2022/12/26 15:23:47;;;;;;;;;;;;;;;4.97;100;101703.2;;;;-75
2022/12/26 15:24:05;;;;;;;6.3;1;;;;;;;;;;;;;-75
2022/12/26 15:28:43;;;;;;;;;;;;;;;4.95;100;101708.6;;;;-73
2022/12/26 15:33:38;;;;;;;;;;;;;;;4.85;100;101715;;;;-74
2022/12/26 15:38:39;;;;;;;;;;;;;;;4.78;100;101727.2;;;;-74
2022/12/26 15:43:42;;;;;;;;;;;;;;;4.7;100;101730;;;;-73
2022/12/26 15:48:40;;;;;;;;;;;;;;;4.67;100;101731.7;;;;-73
2022/12/26 15:53:37;;;;;;;;;;;;;;;4.58;100;101732;;;;-74
2022/12/26 15:53:59;;;;;;;3.6;1;;;;;;;;;;;;;-75
2022/12/26 15:58:44;;;;;;;;;;;;;;;4.5;100;101731;;;;-73
2022/12/26 16:03:35;;;;;;;;;;;;;;;4.43;100;101732.3;;;;-72
2022/12/26 16:08:46;;;;;;;;;;;;;;;4.37;100;101729.7;;;;-73
2022/12/26 16:13:33;;;;;;;;;;;;;;;4.31;100;101737.9;;;;-73
2022/12/26 16:18:34;;;;;;;;;;;;;;;4.25;100;101736.9;;;;-73
2022/12/26 16:23:34;;;;;;;;;;;;;;;4.18;100;101738.8;;;;-73
2022/12/26 16:23:56;;;;;;;6.3;0.9;;;;;;;;;;;;;-74
2022/12/26 16:28:34;;;;;;;;;;;;;;;4.15;100;101742.3;;;;-73
2022/12/26 16:33:34;;;;;;;;;;;;;;;4.09;100;101742.6;;;;-73
2022/12/26 16:38:34;;;;;;;;;;;;;;;4.02;100;101757.4;;;;-74
2022/12/26 16:43:33;;;;;;;;;;;;;;;3.98;100;101769.2;;;;-73
2022/12/26 16:48:33;;;;;;;;;;;;;;;3.94;100;101767;;;;-74
2022/12/26 16:53:44;;;;;;;;;;;;;;;3.89;100;101772.2;;;;-74
2022/12/26 16:53:53;;;;;;;4.6;0.9;;;;;;;;;;;;;-74
2022/12/26 16:58:34;;;;;;;;;;;;;;;3.82;100;101772.6;;;;-73
2022/12/26 17:03:39;;;;;;;;;;;;;;;3.77;100;101761.4;;;;-74
2022/12/26 17:08:33;;;;;;;;;;;;;;;3.71;100;101761.1;;;;-73
2022/12/26 17:13:35;;;;;;;;;;;;;;;3.71;100;101765.6;;;;-73
2022/12/26 17:18:40;;;;;;;;;;;;;;;3.66;100;101769.8;;;;-73
2022/12/26 17:23:42;;;;;;;;;;;;;;;3.66;100;101773.2;;;;-72
2022/12/26 17:24:01;;;;;;;4.5;1;;;;;;;;;;;;;-73
2022/12/26 17:28:33;;;;;;;;;;;;;;;3.67;100;101781.8;;;;-73
2022/12/26 17:33:35;;;;;;;;;;;;;;;3.62;100;101790.4;;;;-72
2022/12/26 17:38:33;;;;;;;;;;;;;;;3.64;100;101794;;;;-73
2022/12/26 17:43:33;;;;;;;;;;;;;;;3.7;100;101799.4;;;;-73
2022/12/26 17:48:32;;;;;;;;;;;;;;;3.68;100;101800;;;;-73
2022/12/26 17:53:33;;;;;;;;;;;;;;;3.64;100;101801.7;;;;-73
2022/12/26 17:53:53;;;;;;;3;0.8;;;;;;;;;;;;;-73
2022/12/26 17:58:33;;;;;;;;;;;;;;;3.72;100;101806.3;;;;-73
2022/12/26 18:03:35;;;;;;;;;;;;;;;3.64;100;101809.1;;;;-74
2022/12/26 18:08:34;;;;;;;;;;;;;;;3.61;100;101817.6;;;;-73
2022/12/26 18:13:32;;;;;;;;;;;;;;;3.6;100;101824.4;;;;-74
2022/12/26 18:18:34;;;;;;;;;;;;;;;3.6;100;101832.9;;;;-74
2022/12/26 18:23:32;;;;;;;;;;;;;;;3.55;100;101830.7;;;;-74
2022/12/26 18:23:52;;;;;;;2.7;0.6;;;;;;;;;;;;;-74
2022/12/26 18:28:32;;;;;;;;;;;;;;;3.53;100;101834.4;;;;-74
2022/12/26 18:33:32;;;;;;;;;;;;;;;3.55;100;101837.1;;;;-74
2022/12/26 18:38:32;;;;;;;;;;;;;;;3.58;100;101838.7;;;;-74
2022/12/26 18:43:32;;;;;;;;;;;;;;;3.59;100;101837.6;;;;-74
2022/12/26 18:48:33;;;;;;;;;;;;;;;3.64;100;101842.8;;;;-73
2022/12/26 18:53:32;;;;;;;;;;;;;;;3.69;100;101857.5;;;;-74
2022/12/26 18:53:51;;;;;;;4.6;0.8;;;;;;;;;;;;;-73
2022/12/26 18:58:32;;;;;;;;;;;;;;;3.72;100;101874;;;;-74
2022/12/26 19:03:32;;;;;;;;;;;;;;;3.73;100;101882.2;;;;-74
2022/12/26 19:08:32;;;;;;;;;;;;;;;3.77;100;101883.6;;;;-74
2022/12/26 19:13:32;;;;;;;;;;;;;;;3.75;100;101883.9;;;;-73
2022/12/26 19:18:33;;;;;;;;;;;;;;;3.75;100;101894.6;;;;-74
2022/12/26 19:23:32;;;;;;;;;;;;;;;3.79;100;101902.5;;;;-73
2022/12/26 19:23:52;;;;;;;5.8;0.8;;;;;;;;;;;;;-73
2022/12/26 19:28:32;;;;;;;;;;;;;;;3.8;100;101897;;;;-73
2022/12/26 19:33:32;;;;;;;;;;;;;;;3.79;100;101898.2;;;;-73
2022/12/26 19:38:32;;;;;;;;;;;;;;;3.83;100;101898;;;;-73
2022/12/26 19:43:32;;;;;;;;;;;;;;;3.85;100;101894;;;;-73
2022/12/26 19:48:32;;;;;;;;;;;;;;;3.91;100;101889;;;;-73
2022/12/26 19:53:32;;;;;;;;;;;;;;;3.94;100;101887.6;;;;-72
2022/12/26 19:53:51;;;;;;;3.3;0.8;;;;;;;;;;;;;-73
2022/12/26 19:58:33;;;;;;;;;;;;;;;4.01;100;101900;;;;-72
2022/12/26 20:03:32;;;;;;;;;;;;;;;4.05;100;101908.5;;;;-75
2022/12/26 20:08:32;;;;;;;;;;;;;;;4.12;100;101913.9;;;;-73
2022/12/26 20:13:32;;;;;;;;;;;;;;;4.06;100;101911.6;;;;-72
2022/12/26 20:18:32;;;;;;;;;;;;;;;4.07;100;101907.2;;;;-73
2022/12/26 20:23:32;;;;;;;;;;;;;;;4.06;100;101920.1;;;;-73
2022/12/26 20:23:50;;;;;;;6.1;0.8;;;;;;;;;;;;;-73
2022/12/26 20:28:32;;;;;;;;;;;;;;;4.05;100;101918.9;;;;-73
2022/12/26 20:33:32;;;;;;;;;;;;;;;4.04;100;101920;;;;-73
2022/12/26 20:38:32;;;;;;;;;;;;;;;4.05;100;101929.7;;;;-73
2022/12/26 20:43:32;;;;;;;;;;;;;;;4.05;100;101934.3;;;;-74
2022/12/26 20:48:33;;;;;;;;;;;;;;;4.04;100;101946.4;;;;-76
2022/12/26 20:53:32;;;;;;;;;;;;;;;4.02;100;101951.5;;;;-74
2022/12/26 20:53:50;;;;;;;7;0.8;;;;;;;;;;;;;-74
2022/12/26 20:58:35;;;;;;;;;;;;;;;4.03;100;101955.3;;;;-74
2022/12/26 21:03:33;;;;;;;;;;;;;;;4;100;101957.9;;;;-74
2022/12/26 21:08:32;;;;;;;;;;;;;;;4;100;101963.4;;;;-73
2022/12/26 21:13:34;;;;;;;;;;;;;;;3.99;100;101968.1;;;;-74
2022/12/26 21:18:32;;;;;;;;;;;;;;;4.01;100;101964.7;;;;-74
2022/12/26 21:23:32;;;;;;;;;;;;;;;3.97;100;101971.9;;;;-73
2022/12/26 21:23:51;;;;;;;5.9;0.9;;;;;;;;;;;;;-73
2022/12/26 21:28:32;;;;;;;;;;;;;;;3.96;100;101977.4;;;;-73
2022/12/26 21:33:32;;;;;;;;;;;;;;;4;100;101977.9;;;;-73
2022/12/26 21:38:33;;;;;;;;;;;;;;;4.04;100;101975.5;;;;-73
2022/12/26 21:43:33;;;;;;;;;;;;;;;4.06;100;101980.2;;;;-73
2022/12/26 21:48:32;;;;;;;;;;;;;;;4.11;100;101982.2;;;;-75
2022/12/26 21:53:32;;;;;;;;;;;;;;;4.11;100;101987.5;;;;-73
2022/12/26 21:53:50;;;;;;;3.2;0.8;;;;;;;;;;;;;-73
2022/12/26 21:59:54;;;;;;;;;;;;;;;4.17;100;101985.1;;;;-73
2022/12/26 22:08:32;;;;;;;;;;;;;;;4.37;100;101996.5;;;;-74
2022/12/26 22:13:32;;;;;;;;;;;;;;;4.4;100;101997.2;;;;-74
2022/12/26 22:18:37;;;;;;;;;;;;;;;4.38;100;102004.5;;;;-72
2022/12/26 22:23:32;;;;;;;;;;;;;;;4.35;100;102013.4;;;;-73
2022/12/26 22:23:50;;;;;;;5.7;1;;;;;;;;;;;;;-73
2022/12/26 22:28:32;;;;;;;;;;;;;;;4.3;100;102017;;;;-73
2022/12/26 22:33:33;;;;;;;;;;;;;;;4.28;100;102021.6;;;;-73
2022/12/26 22:38:32;;;;;;;;;;;;;;;4.31;100;102019;;;;-73
2022/12/26 22:43:33;;;;;;;;;;;;;;;4.39;100;102019.5;;;;-73
2022/12/26 22:48:32;;;;;;;;;;;;;;;4.41;100;102017;;;;-73
2022/12/26 22:53:32;;;;;;;;;;;;;;;4.43;100;102018.9;;;;-73
2022/12/26 22:53:49;;;;;;;3;0.8;;;;;;;;;;;;;-73
2022/12/26 22:58:33;;;;;;;;;;;;;;;4.39;100;102017;;;;-72
2022/12/26 23:03:32;;;;;;;;;;;;;;;4.35;100;102031.8;;;;-73
2022/12/26 23:08:32;;;;;;;;;;;;;;;4.32;100;102030.1;;;;-73
2022/12/26 23:13:32;;;;;;;;;;;;;;;4.34;100;102033.7;;;;-73
2022/12/26 23:23:32;;;;;;;;;;;;;;;4.32;100;102039.5;;;;-74
2022/12/26 23:23:49;;;;;;;4.4;0.9;;;;;;;;;;;;;-73
2022/12/26 23:33:32;;;;;;;;;;;;;;;4.35;100;102049.6;;;;-73
2022/12/26 23:38:32;;;;;;;;;;;;;;;4.34;100;102052.8;;;;-72
2022/12/26 23:43:32;;;;;;;;;;;;;;;4.31;100;102062.6;;;;-73
2022/12/26 23:48:32;;;;;;;;;;;;;;;4.28;100;102063;;;;-72
2022/12/26 23:53:32;;;;;;;;;;;;;;;4.25;100;102053.5;;;;-72
2022/12/26 23:53:48;;;;;;;3.5;0.8;;;;;;;;;;;;;-73
2022/12/26 23:58:32;;;;;;;;;;;;;;;4.26;100;102061.9;;;;-73
